sensor_id;sensor_type;location;lat;lon;timestamp;P1;durP1;ratioP1;P2;durP2;ratioP2
18818;SDS011;9537;45.594;9.294;2023-04-15T00:00:37;4.97;;;1.70;;
18818;SDS011;9537;45.594;9.294;2023-04-15T00:01:43;4.30;;;1.80;;
18818;SDS011;9537;45.594;9.294;2023-04-15T00:02:49;2.90;;;1.60;;
18818;SDS011;9537;45.594;9.294;2023-04-15T00:03:55;4.03;;;1.80;;
18818;SDS011;9537;45.594;9.294;2023-04-15T00:05:03;2.20;;;1.40;;
18818;SDS011;9537;45.594;9.294;2023-04-15T00:06:10;3.07;;;1.80;;
18818;SDS011;9537;45.594;9.294;2023-04-15T00:07:19;6.37;;;1.90;;
18818;SDS011;9537;45.594;9.294;2023-04-15T00:08:25;5.27;;;1.50;;
18818;SDS011;9537;45.594;9.294;2023-04-15T00:09:32;3.23;;;2.03;;
18818;SDS011;9537;45.594;9.294;2023-04-15T00:10:38;1.73;;;1.50;;
18818;SDS011;9537;45.594;9.294;2023-04-15T00:11:45;4.70;;;1.90;;
18818;SDS011;9537;45.594;9.294;2023-04-15T00:12:51;2.77;;;1.60;;
18818;SDS011;9537;45.594;9.294;2023-04-15T00:13:58;1.83;;;1.30;;
18818;SDS011;9537;45.594;9.294;2023-04-15T00:15:00;3.00;;;1.90;;
18818;SDS011;9537;45.594;9.294;2023-04-15T00:16:07;3.47;;;1.87;;
18818;SDS011;9537;45.594;9.294;2023-04-15T00:17:14;2.23;;;1.70;;
18818;SDS011;9537;45.594;9.294;2023-04-15T00:18:21;3.27;;;1.60;;
18818;SDS011;9537;45.594;9.294;2023-04-15T00:19:28;2.93;;;2.00;;
18818;SDS011;9537;45.594;9.294;2023-04-15T00:20:34;2.00;;;1.60;;
18818;SDS011;9537;45.594;9.294;2023-04-15T00:21:41;2.70;;;1.70;;
18818;SDS011;9537;45.594;9.294;2023-04-15T00:22:49;3.50;;;1.93;;
18818;SDS011;9537;45.594;9.294;2023-04-15T00:23:56;1.60;;;1.50;;
18818;SDS011;9537;45.594;9.294;2023-04-15T00:25:02;3.80;;;2.07;;
18818;SDS011;9537;45.594;9.294;2023-04-15T00:26:10;2.40;;;1.67;;
18818;SDS011;9537;45.594;9.294;2023-04-15T00:27:16;4.13;;;1.80;;
18818;SDS011;9537;45.594;9.294;2023-04-15T00:28:19;3.57;;;1.87;;
18818;SDS011;9537;45.594;9.294;2023-04-15T00:29:25;4.00;;;1.73;;
18818;SDS011;9537;45.594;9.294;2023-04-15T00:30:32;3.43;;;1.77;;
18818;SDS011;9537;45.594;9.294;2023-04-15T00:31:38;3.33;;;1.80;;
18818;SDS011;9537;45.594;9.294;2023-04-15T00:32:45;4.77;;;1.80;;
18818;SDS011;9537;45.594;9.294;2023-04-15T00:33:51;5.53;;;1.90;;
18818;SDS011;9537;45.594;9.294;2023-04-15T00:34:58;3.40;;;1.90;;
18818;SDS011;9537;45.594;9.294;2023-04-15T00:36:05;1.80;;;1.57;;
18818;SDS011;9537;45.594;9.294;2023-04-15T00:37:12;3.93;;;2.00;;
18818;SDS011;9537;45.594;9.294;2023-04-15T00:38:21;5.03;;;2.10;;
18818;SDS011;9537;45.594;9.294;2023-04-15T00:39:27;3.40;;;2.00;;
18818;SDS011;9537;45.594;9.294;2023-04-15T00:40:34;3.00;;;1.80;;
18818;SDS011;9537;45.594;9.294;2023-04-15T00:41:40;2.87;;;2.00;;
18818;SDS011;9537;45.594;9.294;2023-04-15T00:42:47;3.40;;;1.80;;
18818;SDS011;9537;45.594;9.294;2023-04-15T00:43:55;3.27;;;1.57;;
18818;SDS011;9537;45.594;9.294;2023-04-15T00:45:01;3.03;;;1.67;;
18818;SDS011;9537;45.594;9.294;2023-04-15T00:46:03;2.40;;;1.63;;
18818;SDS011;9537;45.594;9.294;2023-04-15T00:47:10;3.80;;;1.87;;
18818;SDS011;9537;45.594;9.294;2023-04-15T00:48:18;4.03;;;1.90;;
18818;SDS011;9537;45.594;9.294;2023-04-15T00:49:24;4.23;;;1.83;;
18818;SDS011;9537;45.594;9.294;2023-04-15T00:50:33;3.17;;;1.60;;
18818;SDS011;9537;45.594;9.294;2023-04-15T00:51:39;2.80;;;1.73;;
18818;SDS011;9537;45.594;9.294;2023-04-15T00:52:46;2.60;;;1.70;;
18818;SDS011;9537;45.594;9.294;2023-04-15T00:53:53;2.23;;;1.63;;
18818;SDS011;9537;45.594;9.294;2023-04-15T00:55:00;3.50;;;2.00;;
18818;SDS011;9537;45.594;9.294;2023-04-15T00:56:08;4.90;;;1.73;;
18818;SDS011;9537;45.594;9.294;2023-04-15T00:57:15;3.87;;;1.93;;
18818;SDS011;9537;45.594;9.294;2023-04-15T00:58:22;3.03;;;1.77;;
18818;SDS011;9537;45.594;9.294;2023-04-15T00:59:28;3.43;;;1.80;;
18818;SDS011;9537;45.594;9.294;2023-04-15T01:00:31;4.30;;;1.70;;
18818;SDS011;9537;45.594;9.294;2023-04-15T01:01:37;3.57;;;1.80;;
18818;SDS011;9537;45.594;9.294;2023-04-15T01:02:45;3.60;;;1.50;;
18818;SDS011;9537;45.594;9.294;2023-04-15T01:03:51;3.13;;;1.60;;
18818;SDS011;9537;45.594;9.294;2023-04-15T01:04:58;3.57;;;1.80;;
18818;SDS011;9537;45.594;9.294;2023-04-15T01:06:05;3.13;;;2.10;;
18818;SDS011;9537;45.594;9.294;2023-04-15T01:07:12;3.33;;;1.60;;
18818;SDS011;9537;45.594;9.294;2023-04-15T01:08:18;2.77;;;1.73;;
18818;SDS011;9537;45.594;9.294;2023-04-15T01:09:27;5.80;;;1.67;;
18818;SDS011;9537;45.594;9.294;2023-04-15T01:10:34;2.00;;;1.47;;
18818;SDS011;9537;45.594;9.294;2023-04-15T01:11:40;3.07;;;1.83;;
18818;SDS011;9537;45.594;9.294;2023-04-15T01:12:47;3.60;;;1.60;;
18818;SDS011;9537;45.594;9.294;2023-04-15T01:13:53;2.77;;;1.60;;
18818;SDS011;9537;45.594;9.294;2023-04-15T01:15:01;1.50;;;1.40;;
18818;SDS011;9537;45.594;9.294;2023-04-15T01:16:08;2.20;;;1.50;;
18818;SDS011;9537;45.594;9.294;2023-04-15T01:17:17;4.10;;;1.70;;
18818;SDS011;9537;45.594;9.294;2023-04-15T01:18:23;5.43;;;1.90;;
18818;SDS011;9537;45.594;9.294;2023-04-15T01:19:31;2.73;;;1.70;;
18818;SDS011;9537;45.594;9.294;2023-04-15T01:20:38;2.93;;;1.67;;
18818;SDS011;9537;45.594;9.294;2023-04-15T01:21:45;3.40;;;1.57;;
18818;SDS011;9537;45.594;9.294;2023-04-15T01:22:52;2.27;;;1.40;;
18818;SDS011;9537;45.594;9.294;2023-04-15T01:23:59;4.00;;;1.60;;
18818;SDS011;9537;45.594;9.294;2023-04-15T01:25:11;2.27;;;1.73;;
18818;SDS011;9537;45.594;9.294;2023-04-15T01:26:23;3.90;;;1.60;;
18818;SDS011;9537;45.594;9.294;2023-04-15T01:27:31;2.70;;;1.90;;
18818;SDS011;9537;45.594;9.294;2023-04-15T01:28:39;1.67;;;1.30;;
18818;SDS011;9537;45.594;9.294;2023-04-15T01:29:47;3.03;;;1.77;;
18818;SDS011;9537;45.594;9.294;2023-04-15T01:31:03;3.03;;;1.90;;
18818;SDS011;9537;45.594;9.294;2023-04-15T01:32:12;3.37;;;1.33;;
18818;SDS011;9537;45.594;9.294;2023-04-15T01:33:18;3.63;;;1.80;;
18818;SDS011;9537;45.594;9.294;2023-04-15T01:34:25;1.80;;;1.27;;
18818;SDS011;9537;45.594;9.294;2023-04-15T01:35:31;2.70;;;1.70;;
18818;SDS011;9537;45.594;9.294;2023-04-15T01:36:38;1.90;;;1.40;;
18818;SDS011;9537;45.594;9.294;2023-04-15T01:37:45;1.63;;;1.50;;
18818;SDS011;9537;45.594;9.294;2023-04-15T01:38:52;4.27;;;1.30;;
18818;SDS011;9537;45.594;9.294;2023-04-15T01:39:58;3.40;;;1.90;;
18818;SDS011;9537;45.594;9.294;2023-04-15T01:41:06;4.23;;;1.63;;
18818;SDS011;9537;45.594;9.294;2023-04-15T01:42:13;3.63;;;1.60;;
18818;SDS011;9537;45.594;9.294;2023-04-15T01:43:21;1.73;;;1.40;;
18818;SDS011;9537;45.594;9.294;2023-04-15T01:44:27;4.03;;;1.77;;
18818;SDS011;9537;45.594;9.294;2023-04-15T01:45:34;2.20;;;1.50;;
18818;SDS011;9537;45.594;9.294;2023-04-15T01:46:40;2.73;;;1.70;;
18818;SDS011;9537;45.594;9.294;2023-04-15T01:47:47;2.90;;;1.90;;
18818;SDS011;9537;45.594;9.294;2023-04-15T01:48:53;2.37;;;1.67;;
18818;SDS011;9537;45.594;9.294;2023-04-15T01:50:00;2.80;;;1.40;;
18818;SDS011;9537;45.594;9.294;2023-04-15T01:51:02;2.97;;;1.57;;
18818;SDS011;9537;45.594;9.294;2023-04-15T01:52:09;5.83;;;1.83;;
18818;SDS011;9537;45.594;9.294;2023-04-15T01:53:15;2.63;;;1.70;;
18818;SDS011;9537;45.594;9.294;2023-04-15T01:54:22;2.27;;;1.50;;
18818;SDS011;9537;45.594;9.294;2023-04-15T01:55:28;3.97;;;1.70;;
18818;SDS011;9537;45.594;9.294;2023-04-15T01:56:30;3.93;;;1.80;;
18818;SDS011;9537;45.594;9.294;2023-04-15T01:57:37;1.70;;;1.53;;
18818;SDS011;9537;45.594;9.294;2023-04-15T01:58:44;2.43;;;1.77;;
18818;SDS011;9537;45.594;9.294;2023-04-15T01:59:51;2.33;;;1.60;;
18818;SDS011;9537;45.594;9.294;2023-04-15T02:00:58;3.10;;;1.70;;
18818;SDS011;9537;45.594;9.294;2023-04-15T02:02:04;2.90;;;1.40;;
18818;SDS011;9537;45.594;9.294;2023-04-15T02:03:11;2.53;;;1.53;;
18818;SDS011;9537;45.594;9.294;2023-04-15T02:04:17;3.93;;;1.60;;
18818;SDS011;9537;45.594;9.294;2023-04-15T02:05:24;2.57;;;1.77;;
18818;SDS011;9537;45.594;9.294;2023-04-15T02:06:30;2.13;;;1.50;;
18818;SDS011;9537;45.594;9.294;2023-04-15T02:07:37;6.70;;;1.87;;
18818;SDS011;9537;45.594;9.294;2023-04-15T02:08:43;4.07;;;1.60;;
18818;SDS011;9537;45.594;9.294;2023-04-15T02:09:50;2.90;;;1.90;;
18818;SDS011;9537;45.594;9.294;2023-04-15T02:10:52;2.60;;;1.80;;
18818;SDS011;9537;45.594;9.294;2023-04-15T02:11:59;3.83;;;1.90;;
18818;SDS011;9537;45.594;9.294;2023-04-15T02:13:06;2.10;;;1.40;;
18818;SDS011;9537;45.594;9.294;2023-04-15T02:14:14;1.83;;;1.40;;
18818;SDS011;9537;45.594;9.294;2023-04-15T02:15:20;3.10;;;1.87;;
18818;SDS011;9537;45.594;9.294;2023-04-15T02:16:27;2.90;;;1.50;;
18818;SDS011;9537;45.594;9.294;2023-04-15T02:17:33;2.73;;;1.70;;
18818;SDS011;9537;45.594;9.294;2023-04-15T02:18:40;2.13;;;1.37;;
18818;SDS011;9537;45.594;9.294;2023-04-15T02:19:47;2.97;;;1.33;;
18818;SDS011;9537;45.594;9.294;2023-04-15T02:20:54;2.30;;;1.50;;
18818;SDS011;9537;45.594;9.294;2023-04-15T02:22:01;3.60;;;1.77;;
18818;SDS011;9537;45.594;9.294;2023-04-15T02:23:08;2.53;;;1.67;;
18818;SDS011;9537;45.594;9.294;2023-04-15T02:24:15;1.97;;;1.57;;
18818;SDS011;9537;45.594;9.294;2023-04-15T02:25:22;4.60;;;1.70;;
18818;SDS011;9537;45.594;9.294;2023-04-15T02:26:28;2.23;;;1.53;;
18818;SDS011;9537;45.594;9.294;2023-04-15T02:27:37;3.17;;;1.20;;
18818;SDS011;9537;45.594;9.294;2023-04-15T02:28:45;3.30;;;1.43;;
18818;SDS011;9537;45.594;9.294;2023-04-15T02:29:53;4.63;;;1.57;;
18818;SDS011;9537;45.594;9.294;2023-04-15T02:30:59;2.27;;;1.30;;
18818;SDS011;9537;45.594;9.294;2023-04-15T02:32:06;1.40;;;1.20;;
18818;SDS011;9537;45.594;9.294;2023-04-15T02:33:12;2.60;;;1.73;;
18818;SDS011;9537;45.594;9.294;2023-04-15T02:34:19;3.13;;;1.60;;
18818;SDS011;9537;45.594;9.294;2023-04-15T02:35:25;1.70;;;1.47;;
18818;SDS011;9537;45.594;9.294;2023-04-15T02:36:32;1.97;;;1.50;;
18818;SDS011;9537;45.594;9.294;2023-04-15T02:37:38;2.40;;;1.60;;
18818;SDS011;9537;45.594;9.294;2023-04-15T02:38:47;4.30;;;1.60;;
18818;SDS011;9537;45.594;9.294;2023-04-15T02:39:53;3.53;;;1.13;;
18818;SDS011;9537;45.594;9.294;2023-04-15T02:41:01;3.10;;;1.50;;
18818;SDS011;9537;45.594;9.294;2023-04-15T02:42:07;1.47;;;1.30;;
18818;SDS011;9537;45.594;9.294;2023-04-15T02:43:14;2.33;;;1.60;;
18818;SDS011;9537;45.594;9.294;2023-04-15T02:44:23;1.80;;;1.37;;
18818;SDS011;9537;45.594;9.294;2023-04-15T02:45:25;5.57;;;1.43;;
18818;SDS011;9537;45.594;9.294;2023-04-15T02:46:32;2.63;;;1.30;;
18818;SDS011;9537;45.594;9.294;2023-04-15T02:47:34;1.47;;;1.20;;
18818;SDS011;9537;45.594;9.294;2023-04-15T02:48:40;2.10;;;1.33;;
18818;SDS011;9537;45.594;9.294;2023-04-15T02:49:47;1.60;;;1.20;;
18818;SDS011;9537;45.594;9.294;2023-04-15T02:50:55;1.97;;;1.40;;
18818;SDS011;9537;45.594;9.294;2023-04-15T02:52:12;2.10;;;1.37;;
18818;SDS011;9537;45.594;9.294;2023-04-15T02:53:13;1.47;;;1.30;;
18818;SDS011;9537;45.594;9.294;2023-04-15T02:54:20;1.50;;;1.30;;
18818;SDS011;9537;45.594;9.294;2023-04-15T02:55:27;2.33;;;1.40;;
18818;SDS011;9537;45.594;9.294;2023-04-15T02:56:34;2.27;;;1.30;;
18818;SDS011;9537;45.594;9.294;2023-04-15T02:57:40;2.00;;;1.53;;
18818;SDS011;9537;45.594;9.294;2023-04-15T02:58:47;2.37;;;1.50;;
18818;SDS011;9537;45.594;9.294;2023-04-15T02:59:56;1.23;;;1.13;;
18818;SDS011;9537;45.594;9.294;2023-04-15T03:01:03;1.23;;;1.13;;
18818;SDS011;9537;45.594;9.294;2023-04-15T03:02:09;4.30;;;1.23;;
18818;SDS011;9537;45.594;9.294;2023-04-15T03:03:16;2.00;;;1.30;;
18818;SDS011;9537;45.594;9.294;2023-04-15T03:04:22;1.40;;;1.10;;
18818;SDS011;9537;45.594;9.294;2023-04-15T03:05:29;1.30;;;1.17;;
18818;SDS011;9537;45.594;9.294;2023-04-15T03:06:35;2.30;;;1.40;;
18818;SDS011;9537;45.594;9.294;2023-04-15T03:07:42;1.77;;;1.03;;
18818;SDS011;9537;45.594;9.294;2023-04-15T03:08:49;2.27;;;1.30;;
18818;SDS011;9537;45.594;9.294;2023-04-15T03:09:56;1.93;;;1.33;;
18818;SDS011;9537;45.594;9.294;2023-04-15T03:11:02;1.67;;;1.40;;
18818;SDS011;9537;45.594;9.294;2023-04-15T03:12:10;3.07;;;1.10;;
18818;SDS011;9537;45.594;9.294;2023-04-15T03:13:16;2.53;;;1.30;;
18818;SDS011;9537;45.594;9.294;2023-04-15T03:14:23;2.13;;;1.33;;
18818;SDS011;9537;45.594;9.294;2023-04-15T03:15:31;3.60;;;1.47;;
18818;SDS011;9537;45.594;9.294;2023-04-15T03:16:38;1.40;;;1.20;;
18818;SDS011;9537;45.594;9.294;2023-04-15T03:17:44;2.40;;;1.30;;
18818;SDS011;9537;45.594;9.294;2023-04-15T03:18:53;2.67;;;1.27;;
18818;SDS011;9537;45.594;9.294;2023-04-15T03:20:00;1.57;;;1.00;;
18818;SDS011;9537;45.594;9.294;2023-04-15T03:21:07;2.30;;;1.43;;
18818;SDS011;9537;45.594;9.294;2023-04-15T03:22:13;1.57;;;1.30;;
18818;SDS011;9537;45.594;9.294;2023-04-15T03:23:20;1.30;;;1.20;;
18818;SDS011;9537;45.594;9.294;2023-04-15T03:24:26;1.20;;;1.10;;
18818;SDS011;9537;45.594;9.294;2023-04-15T03:25:34;1.27;;;1.13;;
18818;SDS011;9537;45.594;9.294;2023-04-15T03:26:41;1.70;;;1.30;;
18818;SDS011;9537;45.594;9.294;2023-04-15T03:27:48;2.47;;;1.50;;
18818;SDS011;9537;45.594;9.294;2023-04-15T03:28:49;1.50;;;1.03;;
18818;SDS011;9537;45.594;9.294;2023-04-15T03:29:56;1.47;;;1.00;;
18818;SDS011;9537;45.594;9.294;2023-04-15T03:31:04;0.90;;;0.80;;
18818;SDS011;9537;45.594;9.294;2023-04-15T03:32:12;1.70;;;1.07;;
18818;SDS011;9537;45.594;9.294;2023-04-15T03:33:19;1.97;;;1.30;;
18818;SDS011;9537;45.594;9.294;2023-04-15T03:34:26;1.20;;;1.10;;
18818;SDS011;9537;45.594;9.294;2023-04-15T03:35:32;4.77;;;1.03;;
18818;SDS011;9537;45.594;9.294;2023-04-15T03:36:40;2.43;;;1.00;;
18818;SDS011;9537;45.594;9.294;2023-04-15T03:37:47;1.37;;;1.10;;
18818;SDS011;9537;45.594;9.294;2023-04-15T03:38:48;1.50;;;1.13;;
18818;SDS011;9537;45.594;9.294;2023-04-15T03:39:55;1.17;;;1.00;;
18818;SDS011;9537;45.594;9.294;2023-04-15T03:41:01;2.37;;;1.10;;
18818;SDS011;9537;45.594;9.294;2023-04-15T03:42:08;1.13;;;1.07;;
18818;SDS011;9537;45.594;9.294;2023-04-15T03:43:14;2.77;;;0.90;;
18818;SDS011;9537;45.594;9.294;2023-04-15T03:44:21;1.10;;;1.00;;
18818;SDS011;9537;45.594;9.294;2023-04-15T03:45:27;1.73;;;1.40;;
18818;SDS011;9537;45.594;9.294;2023-04-15T03:46:36;1.80;;;1.50;;
18818;SDS011;9537;45.594;9.294;2023-04-15T03:47:42;1.80;;;1.70;;
18818;SDS011;9537;45.594;9.294;2023-04-15T03:48:49;1.93;;;1.53;;
18818;SDS011;9537;45.594;9.294;2023-04-15T03:49:54;1.63;;;1.53;;
18818;SDS011;9537;45.594;9.294;2023-04-15T03:51:01;1.77;;;1.20;;
18818;SDS011;9537;45.594;9.294;2023-04-15T03:52:07;3.57;;;1.20;;
18818;SDS011;9537;45.594;9.294;2023-04-15T03:53:14;1.73;;;1.17;;
18818;SDS011;9537;45.594;9.294;2023-04-15T03:54:15;1.73;;;1.27;;
18818;SDS011;9537;45.594;9.294;2023-04-15T03:55:22;1.73;;;0.90;;
18818;SDS011;9537;45.594;9.294;2023-04-15T03:56:28;1.50;;;1.30;;
18818;SDS011;9537;45.594;9.294;2023-04-15T03:57:36;1.50;;;1.00;;
18818;SDS011;9537;45.594;9.294;2023-04-15T03:58:43;1.47;;;1.10;;
18818;SDS011;9537;45.594;9.294;2023-04-15T03:59:50;1.87;;;1.20;;
18818;SDS011;9537;45.594;9.294;2023-04-15T04:00:56;1.90;;;1.10;;
18818;SDS011;9537;45.594;9.294;2023-04-15T04:02:04;3.10;;;1.10;;
18818;SDS011;9537;45.594;9.294;2023-04-15T04:03:11;1.67;;;1.07;;
18818;SDS011;9537;45.594;9.294;2023-04-15T04:04:18;1.10;;;1.00;;
18818;SDS011;9537;45.594;9.294;2023-04-15T04:05:23;1.90;;;0.87;;
18818;SDS011;9537;45.594;9.294;2023-04-15T04:06:30;1.20;;;1.10;;
18818;SDS011;9537;45.594;9.294;2023-04-15T04:07:37;1.67;;;0.97;;
18818;SDS011;9537;45.594;9.294;2023-04-15T04:08:44;0.87;;;0.83;;
18818;SDS011;9537;45.594;9.294;2023-04-15T04:09:50;1.53;;;0.90;;
18818;SDS011;9537;45.594;9.294;2023-04-15T04:10:56;1.87;;;1.23;;
18818;SDS011;9537;45.594;9.294;2023-04-15T04:12:02;1.93;;;0.80;;
18818;SDS011;9537;45.594;9.294;2023-04-15T04:13:09;0.80;;;0.80;;
18818;SDS011;9537;45.594;9.294;2023-04-15T04:14:16;1.80;;;1.00;;
18818;SDS011;9537;45.594;9.294;2023-04-15T04:15:23;2.13;;;1.17;;
18818;SDS011;9537;45.594;9.294;2023-04-15T04:16:29;2.63;;;1.03;;
18818;SDS011;9537;45.594;9.294;2023-04-15T04:17:37;1.67;;;1.10;;
18818;SDS011;9537;45.594;9.294;2023-04-15T04:18:43;2.27;;;0.90;;
18818;SDS011;9537;45.594;9.294;2023-04-15T04:19:45;1.90;;;1.00;;
18818;SDS011;9537;45.594;9.294;2023-04-15T04:20:51;1.00;;;0.90;;
18818;SDS011;9537;45.594;9.294;2023-04-15T04:21:58;1.37;;;0.97;;
18818;SDS011;9537;45.594;9.294;2023-04-15T04:23:05;1.63;;;1.20;;
18818;SDS011;9537;45.594;9.294;2023-04-15T04:24:07;2.17;;;1.20;;
18818;SDS011;9537;45.594;9.294;2023-04-15T04:25:12;2.53;;;1.30;;
18818;SDS011;9537;45.594;9.294;2023-04-15T04:26:20;2.27;;;1.10;;
18818;SDS011;9537;45.594;9.294;2023-04-15T04:27:32;2.23;;;0.90;;
18818;SDS011;9537;45.594;9.294;2023-04-15T04:28:34;2.40;;;1.07;;
18818;SDS011;9537;45.594;9.294;2023-04-15T04:29:41;2.30;;;1.20;;
18818;SDS011;9537;45.594;9.294;2023-04-15T04:30:43;2.90;;;1.10;;
18818;SDS011;9537;45.594;9.294;2023-04-15T04:31:49;1.27;;;1.10;;
18818;SDS011;9537;45.594;9.294;2023-04-15T04:32:58;1.80;;;1.07;;
18818;SDS011;9537;45.594;9.294;2023-04-15T04:34:03;4.17;;;1.27;;
18818;SDS011;9537;45.594;9.294;2023-04-15T04:35:10;1.40;;;1.30;;
18818;SDS011;9537;45.594;9.294;2023-04-15T04:36:17;2.53;;;1.07;;
18818;SDS011;9537;45.594;9.294;2023-04-15T04:37:24;3.40;;;1.30;;
18818;SDS011;9537;45.594;9.294;2023-04-15T04:38:30;1.53;;;1.20;;
18818;SDS011;9537;45.594;9.294;2023-04-15T04:39:37;1.33;;;1.10;;
18818;SDS011;9537;45.594;9.294;2023-04-15T04:40:42;2.60;;;1.40;;
18818;SDS011;9537;45.594;9.294;2023-04-15T04:41:50;2.57;;;1.40;;
18818;SDS011;9537;45.594;9.294;2023-04-15T04:42:56;1.73;;;1.20;;
18818;SDS011;9537;45.594;9.294;2023-04-15T04:44:03;2.10;;;1.27;;
18818;SDS011;9537;45.594;9.294;2023-04-15T04:45:10;1.63;;;1.27;;
18818;SDS011;9537;45.594;9.294;2023-04-15T04:46:17;2.13;;;1.33;;
18818;SDS011;9537;45.594;9.294;2023-04-15T04:47:23;2.87;;;1.70;;
18818;SDS011;9537;45.594;9.294;2023-04-15T04:48:31;1.30;;;1.20;;
18818;SDS011;9537;45.594;9.294;2023-04-15T04:49:38;3.33;;;1.30;;
18818;SDS011;9537;45.594;9.294;2023-04-15T04:50:44;4.53;;;1.50;;
18818;SDS011;9537;45.594;9.294;2023-04-15T04:51:51;4.47;;;1.40;;
18818;SDS011;9537;45.594;9.294;2023-04-15T04:52:57;1.70;;;1.20;;
18818;SDS011;9537;45.594;9.294;2023-04-15T04:54:04;1.80;;;1.50;;
18818;SDS011;9537;45.594;9.294;2023-04-15T04:55:11;3.37;;;1.53;;
18818;SDS011;9537;45.594;9.294;2023-04-15T04:56:18;2.27;;;1.30;;
18818;SDS011;9537;45.594;9.294;2023-04-15T04:57:24;3.50;;;1.20;;
18818;SDS011;9537;45.594;9.294;2023-04-15T04:58:31;2.50;;;1.50;;
18818;SDS011;9537;45.594;9.294;2023-04-15T04:59:37;3.43;;;1.10;;
18818;SDS011;9537;45.594;9.294;2023-04-15T05:00:43;2.10;;;1.30;;
18818;SDS011;9537;45.594;9.294;2023-04-15T05:01:50;2.13;;;1.20;;
18818;SDS011;9537;45.594;9.294;2023-04-15T05:02:57;2.27;;;1.30;;
18818;SDS011;9537;45.594;9.294;2023-04-15T05:04:05;2.30;;;1.50;;
18818;SDS011;9537;45.594;9.294;2023-04-15T05:05:12;6.17;;;1.50;;
18818;SDS011;9537;45.594;9.294;2023-04-15T05:06:19;3.53;;;1.43;;
18818;SDS011;9537;45.594;9.294;2023-04-15T05:07:25;2.23;;;1.33;;
18818;SDS011;9537;45.594;9.294;2023-04-15T05:08:32;2.10;;;1.30;;
18818;SDS011;9537;45.594;9.294;2023-04-15T05:09:38;5.03;;;1.50;;
18818;SDS011;9537;45.594;9.294;2023-04-15T05:10:45;1.80;;;1.60;;
18818;SDS011;9537;45.594;9.294;2023-04-15T05:11:51;3.47;;;1.57;;
18818;SDS011;9537;45.594;9.294;2023-04-15T05:12:58;2.50;;;1.20;;
18818;SDS011;9537;45.594;9.294;2023-04-15T05:14:05;1.87;;;1.40;;
18818;SDS011;9537;45.594;9.294;2023-04-15T05:15:07;12.27;;;1.60;;
18818;SDS011;9537;45.594;9.294;2023-04-15T05:16:14;6.13;;;1.50;;
18818;SDS011;9537;45.594;9.294;2023-04-15T05:17:21;8.60;;;1.80;;
18818;SDS011;9537;45.594;9.294;2023-04-15T05:18:28;7.87;;;2.00;;
18818;SDS011;9537;45.594;9.294;2023-04-15T05:19:36;6.67;;;1.87;;
18818;SDS011;9537;45.594;9.294;2023-04-15T05:20:43;4.33;;;1.33;;
18818;SDS011;9537;45.594;9.294;2023-04-15T05:21:50;2.13;;;1.43;;
18818;SDS011;9537;45.594;9.294;2023-04-15T05:22:56;3.50;;;1.50;;
18818;SDS011;9537;45.594;9.294;2023-04-15T05:24:03;1.63;;;1.40;;
18818;SDS011;9537;45.594;9.294;2023-04-15T05:25:09;4.67;;;1.63;;
18818;SDS011;9537;45.594;9.294;2023-04-15T05:26:17;6.93;;;1.87;;
18818;SDS011;9537;45.594;9.294;2023-04-15T05:27:22;2.70;;;1.50;;
18818;SDS011;9537;45.594;9.294;2023-04-15T05:28:29;4.17;;;1.60;;
18818;SDS011;9537;45.594;9.294;2023-04-15T05:29:35;4.60;;;1.53;;
18818;SDS011;9537;45.594;9.294;2023-04-15T05:30:42;4.50;;;1.50;;
18818;SDS011;9537;45.594;9.294;2023-04-15T05:31:49;2.37;;;1.37;;
18818;SDS011;9537;45.594;9.294;2023-04-15T05:32:56;2.73;;;1.50;;
18818;SDS011;9537;45.594;9.294;2023-04-15T05:34:02;2.53;;;1.33;;
18818;SDS011;9537;45.594;9.294;2023-04-15T05:35:10;2.37;;;1.40;;
18818;SDS011;9537;45.594;9.294;2023-04-15T05:36:17;5.67;;;1.43;;
18818;SDS011;9537;45.594;9.294;2023-04-15T05:37:23;5.60;;;1.50;;
18818;SDS011;9537;45.594;9.294;2023-04-15T05:38:29;2.50;;;1.40;;
18818;SDS011;9537;45.594;9.294;2023-04-15T05:39:31;4.73;;;1.60;;
18818;SDS011;9537;45.594;9.294;2023-04-15T05:40:39;2.57;;;1.80;;
18818;SDS011;9537;45.594;9.294;2023-04-15T05:41:46;3.17;;;1.73;;
18818;SDS011;9537;45.594;9.294;2023-04-15T05:42:52;4.97;;;1.73;;
18818;SDS011;9537;45.594;9.294;2023-04-15T05:43:54;2.50;;;1.50;;
18818;SDS011;9537;45.594;9.294;2023-04-15T05:45:00;4.73;;;2.00;;
18818;SDS011;9537;45.594;9.294;2023-04-15T05:46:10;4.83;;;1.90;;
18818;SDS011;9537;45.594;9.294;2023-04-15T05:47:16;3.43;;;1.70;;
18818;SDS011;9537;45.594;9.294;2023-04-15T05:48:23;3.63;;;1.97;;
18818;SDS011;9537;45.594;9.294;2023-04-15T05:49:29;3.57;;;1.63;;
18818;SDS011;9537;45.594;9.294;2023-04-15T05:50:39;6.77;;;2.10;;
18818;SDS011;9537;45.594;9.294;2023-04-15T05:51:46;4.73;;;2.10;;
18818;SDS011;9537;45.594;9.294;2023-04-15T05:52:53;3.87;;;2.10;;
18818;SDS011;9537;45.594;9.294;2023-04-15T05:53:59;3.97;;;1.83;;
18818;SDS011;9537;45.594;9.294;2023-04-15T05:55:06;7.57;;;2.30;;
18818;SDS011;9537;45.594;9.294;2023-04-15T05:56:13;4.73;;;2.53;;
18818;SDS011;9537;45.594;9.294;2023-04-15T05:57:20;2.97;;;1.80;;
18818;SDS011;9537;45.594;9.294;2023-04-15T05:58:27;2.00;;;1.50;;
18818;SDS011;9537;45.594;9.294;2023-04-15T05:59:33;2.13;;;1.40;;
18818;SDS011;9537;45.594;9.294;2023-04-15T06:00:41;1.70;;;1.30;;
18818;SDS011;9537;45.594;9.294;2023-04-15T06:01:48;2.73;;;1.40;;
18818;SDS011;9537;45.594;9.294;2023-04-15T06:02:56;2.87;;;1.67;;
18818;SDS011;9537;45.594;9.294;2023-04-15T06:04:03;2.80;;;1.70;;
18818;SDS011;9537;45.594;9.294;2023-04-15T06:05:09;3.50;;;1.90;;
18818;SDS011;9537;45.594;9.294;2023-04-15T06:06:13;4.20;;;1.70;;
18818;SDS011;9537;45.594;9.294;2023-04-15T06:07:15;6.60;;;2.00;;
18818;SDS011;9537;45.594;9.294;2023-04-15T06:08:22;3.20;;;2.00;;
18818;SDS011;9537;45.594;9.294;2023-04-15T06:09:28;2.90;;;1.53;;
18818;SDS011;9537;45.594;9.294;2023-04-15T06:10:35;2.77;;;1.60;;
18818;SDS011;9537;45.594;9.294;2023-04-15T06:11:43;3.40;;;1.80;;
18818;SDS011;9537;45.594;9.294;2023-04-15T06:12:48;4.07;;;2.10;;
18818;SDS011;9537;45.594;9.294;2023-04-15T06:13:56;2.50;;;1.83;;
18818;SDS011;9537;45.594;9.294;2023-04-15T06:15:02;3.97;;;1.73;;
18818;SDS011;9537;45.594;9.294;2023-04-15T06:16:11;3.70;;;1.60;;
18818;SDS011;9537;45.594;9.294;2023-04-15T06:17:16;2.80;;;1.90;;
18818;SDS011;9537;45.594;9.294;2023-04-15T06:18:19;2.10;;;1.70;;
18818;SDS011;9537;45.594;9.294;2023-04-15T06:19:25;3.57;;;1.70;;
18818;SDS011;9537;45.594;9.294;2023-04-15T06:20:32;3.60;;;1.60;;
18818;SDS011;9537;45.594;9.294;2023-04-15T06:21:39;2.43;;;1.80;;
18818;SDS011;9537;45.594;9.294;2023-04-15T06:22:46;5.67;;;1.70;;
18818;SDS011;9537;45.594;9.294;2023-04-15T06:23:52;3.60;;;1.77;;
18818;SDS011;9537;45.594;9.294;2023-04-15T06:25:01;3.90;;;1.67;;
18818;SDS011;9537;45.594;9.294;2023-04-15T06:26:07;2.03;;;1.70;;
18818;SDS011;9537;45.594;9.294;2023-04-15T06:27:14;7.03;;;2.07;;
18818;SDS011;9537;45.594;9.294;2023-04-15T06:28:21;5.27;;;1.80;;
18818;SDS011;9537;45.594;9.294;2023-04-15T06:29:28;4.97;;;1.80;;
18818;SDS011;9537;45.594;9.294;2023-04-15T06:30:35;6.63;;;2.20;;
18818;SDS011;9537;45.594;9.294;2023-04-15T06:31:43;3.40;;;1.90;;
18818;SDS011;9537;45.594;9.294;2023-04-15T06:32:44;3.80;;;1.90;;
18818;SDS011;9537;45.594;9.294;2023-04-15T06:33:51;3.37;;;1.87;;
18818;SDS011;9537;45.594;9.294;2023-04-15T06:34:57;3.33;;;1.93;;
18818;SDS011;9537;45.594;9.294;2023-04-15T06:36:05;4.27;;;2.00;;
18818;SDS011;9537;45.594;9.294;2023-04-15T06:37:12;2.93;;;2.03;;
18818;SDS011;9537;45.594;9.294;2023-04-15T06:38:15;3.50;;;1.83;;
18818;SDS011;9537;45.594;9.294;2023-04-15T06:39:21;4.67;;;2.00;;
18818;SDS011;9537;45.594;9.294;2023-04-15T06:40:24;3.47;;;1.63;;
18818;SDS011;9537;45.594;9.294;2023-04-15T06:41:30;2.17;;;1.90;;
18818;SDS011;9537;45.594;9.294;2023-04-15T06:42:37;3.97;;;1.87;;
18818;SDS011;9537;45.594;9.294;2023-04-15T06:43:44;4.00;;;2.13;;
18818;SDS011;9537;45.594;9.294;2023-04-15T06:44:51;4.43;;;2.00;;
18818;SDS011;9537;45.594;9.294;2023-04-15T06:45:52;4.13;;;2.13;;
18818;SDS011;9537;45.594;9.294;2023-04-15T06:47:00;3.03;;;1.70;;